Airfield :
LOGIN :

Register | Disclaimer

   EN    FR    IT 

 










Legend :    VFR   Marginal VFR   IFR   Intensive IFR   Very Intensive IFR
Visi :
Ceiling :
>= 8 km
>= 3000ft
5 to 8 km
1000 to 3000 ft
1500m to 5 km
500 to 1000 ft
800 to 1500m
200 to 500 ft
< 800m
< 200 ft
Symbols :   Thunderstorms  Fog  Heavy snow  Heavy precipitations  Wind > 20 kt
SIGMETs :     Misc.  Thunderstorms  Icing  Turbulence  Mountain Waves  Volcanic Ashes






- Airport Elevation : 299 ft
- IATA code : EDM


LFRI - La Roche Sur Yon - Les Ajoncs

CURRENT METAR :
  • 131530Z AUTO 31006KT 270V340 9999 BKN041 OVC050 21/13 Q1014

EXPIRED METARs :
  • 131500Z AUTO 24005KT 180V310 9999 FEW038 21/12 Q1014
  • 131430Z AUTO 26007KT 190V330 9999 FEW033 SCT058 21/12 Q1015
  • 131400Z AUTO 26007KT 210V300 9999 BKN036 BKN048 BKN058 21/12 Q1015
  • 131330Z AUTO VRB03KT 9999 FEW037 BKN064 21/12 Q1015
  • 131300Z AUTO 25006KT 210V280 9999 FEW036 OVC058 19/12 Q1015
  • 131230Z AUTO 27006KT 230V310 9999 FEW030 SCT035 BKN043 19/12 Q1015
  • 131200Z AUTO 24003KT 180V310 9999 SCT037 OVC066 19/11 Q1015
  • 131130Z AUTO 26004KT 220V310 9999 FEW039 SCT047 OVC058 19/12 Q1015
  • 131100Z AUTO 22003KT 170V270 9999 FEW036 OVC062 19/11 Q1016

TAF TAF LFRI
Valid from the 12 at 18:00 until the 13 at 18:00 UTC


121700Z 1218/1318 28010KT 9999 BKN030
BECMG 1300/1304 VRB03KT
PROB30 1302/1306 0600 FG



MET'MAP, your aeronautical weather chart ! - Copyright ORBIFLY December 2007 - Disclaimer

ORBIFLY MET'MAP TEAM :

Programming & Development : Alexandra Zaïnal
Original concept : Baudouin d'Aumeries
Technical & hardware support : Manuel Goepfert
Assistance : Marc-Olivier Méhu




SOURCES & CREDITS :

   NOAA